Time;durP1;ratioP1;P1;durP2;ratioP2;P2;SDS_P1;SDS_P2;PMS_P1;PMS_P2;Temp;Humidity;BMP_temperature;BMP_pressure;BME280_temperature;BME280_humidity;BME280_pressure;Samples;Min_cycle;Max_cycle;Signal;HPM_P1;HPM_P2
2023/06/20 00:00:52;;;;;;;;;;;;;;;25.19;41.86;101424.41;5085242;28;20001;-79
2023/06/20 00:03:17;;;;;;;;;;;;;;;25.15;41.85;101423.47;5087726;28;19939;-79
2023/06/20 00:05:46;;;;;;;;;;;;;;;25.08;42.00;101421.22;5088201;28;19966;-79
2023/06/20 00:08:11;;;;;;;;;;;;;;;25.04;41.92;101411.25;5085045;28;20002;-79
2023/06/20 00:10:36;;;;;;;;;;;;;;;25.00;41.95;101411.94;5085960;28;20363;-79
2023/06/20 00:13:02;;;;;;;;;;;;;;;24.97;42.05;101407.09;5087781;28;19919;-79
2023/06/20 00:15:28;;;;;;;;;;;;;;;24.94;42.05;101413.19;5087602;28;19998;-79
2023/06/20 00:17:54;;;;;;;;;;;;;;;24.91;41.94;101402.88;5070496;28;19916;-79
2023/06/20 00:20:19;;;;;;;;;;;;;;;24.88;41.97;101409.03;5089009;28;19916;-79
2023/06/20 00:22:45;;;;;;;;;;;;;;;24.86;41.97;101405.81;5083642;28;19932;-80
2023/06/20 00:25:10;;;;;;;;;;;;;;;24.83;42.24;101406.50;5087903;28;20006;-79
2023/06/20 00:27:36;;;;;;;;;;;;;;;24.77;42.35;101406.97;5087890;28;19975;-79
2023/06/20 00:30:01;;;;;;;;;;;;;;;24.72;42.25;101416.19;5088345;28;20006;-78
2023/06/20 00:32:26;;;;;;;;;;;;;;;24.67;42.39;101414.44;5087094;28;19965;-79
2023/06/20 00:34:52;;;;;;;;;;;;;;;24.63;42.34;101409.94;5084013;28;19920;-79
2023/06/20 00:37:17;;;;;;;;;;;;;;;24.59;42.31;101417.19;5086107;28;19923;-79
2023/06/20 00:39:42;;;;;;;;;;;;;;;24.55;42.56;101408.81;5084230;28;19975;-79
2023/06/20 00:42:21;;;;;;;;;;;;;;;24.51;42.51;101404.31;5085646;28;20406;-79
2023/06/20 00:44:47;;;;;;;;;;;;;;;24.47;42.57;101403.38;5086039;28;19924;-79
2023/06/20 00:47:15;;;;;;;;;;;;;;;24.45;42.44;101400.16;5088695;28;19944;-79
2023/06/20 00:49:40;;;;;;;;;;;;;;;24.42;42.54;101401.63;5083833;28;19927;-80
2023/06/20 00:52:06;;;;;;;;;;;;;;;24.39;42.91;101400.31;5086628;28;19924;-79
2023/06/20 00:54:31;;;;;;;;;;;;;;;24.35;42.64;101399.34;5085133;28;19916;-79
2023/06/20 00:56:57;;;;;;;;;;;;;;;24.29;42.75;101397.13;5083737;28;19916;-82
2023/06/20 00:59:22;;;;;;;;;;;;;;;24.26;42.92;101404.03;5085212;28;19924;-79
2023/06/20 01:01:47;;;;;;;;;;;;;;;24.24;42.66;101406.28;5084176;28;20300;-79
2023/06/20 01:04:13;;;;;;;;;;;;;;;24.23;42.67;101399.19;5084418;28;19924;-78
2023/06/20 01:06:42;;;;;;;;;;;;;;;24.20;42.69;101402.56;5086813;28;19989;-79
2023/06/20 01:09:10;;;;;;;;;;;;;;;24.15;42.90;101394.53;5086819;28;20402;-79
2023/06/20 01:11:56;;;;;;;;;;;;;;;24.11;42.83;101394.38;5084927;28;20551;-79
2023/06/20 01:14:31;;;;;;;;;;;;;;;24.08;42.87;101402.44;5066777;28;19924;-79
2023/06/20 01:17:16;;;;;;;;;;;;;;;24.06;42.84;101399.22;5081754;28;19921;-79
2023/06/20 01:19:53;;;;;;;;;;;;;;;24.09;42.91;101404.03;5076712;28;19969;-78
2023/06/20 01:22:34;;;;;;;;;;;;;;;24.08;42.73;101407.91;5086710;28;20406;-79
2023/06/20 01:25:01;;;;;;;;;;;;;;;24.07;43.09;101411.78;5084503;28;19991;-79
2023/06/20 01:27:34;;;;;;;;;;;;;;;24.02;43.33;101400.97;5084289;28;19924;-79
2023/06/20 01:30:03;;;;;;;;;;;;;;;23.98;43.09;101397.28;5083408;28;19917;-79
2023/06/20 01:32:28;;;;;;;;;;;;;;;23.95;42.99;101393.25;5084329;28;19916;-79
2023/06/20 01:35:00;;;;;;;;;;;;;;;23.92;42.89;101393.09;5084873;28;19964;-79
2023/06/20 01:37:29;;;;;;;;;;;;;;;23.88;42.92;101381.16;5085049;28;19927;-79
2023/06/20 01:39:56;;;;;;;;;;;;;;;23.84;43.11;101380.22;5084795;28;19931;-79
2023/06/20 01:42:23;;;;;;;;;;;;;;;23.81;43.25;101376.19;5085284;28;19955;-78
2023/06/20 01:44:51;;;;;;;;;;;;;;;23.77;43.25;101373.31;5083689;28;19927;-80
2023/06/20 01:47:18;;;;;;;;;;;;;;;23.77;43.25;101372.50;5082351;28;19967;-79
2023/06/20 01:49:43;;;;;;;;;;;;;;;23.73;43.51;101375.06;5086220;28;19920;-79
2023/06/20 01:52:12;;;;;;;;;;;;;;;23.67;43.51;101375.53;5084917;28;20704;-78
2023/06/20 01:54:39;;;;;;;;;;;;;;;23.58;44.21;101369.28;5086842;28;19919;-78
2023/06/20 01:57:04;;;;;;;;;;;;;;;23.57;43.79;101376.69;5083553;28;20340;-78
2023/06/20 01:59:30;;;;;;;;;;;;;;;23.59;43.44;101368.94;5085233;28;19928;-79
2023/06/20 02:01:56;;;;;;;;;;;;;;;23.61;43.53;101372.16;5085335;28;20490;-78
2023/06/20 02:04:23;;;;;;;;;;;;;;;23.62;43.27;101373.78;5087634;28;20594;-79
2023/06/20 02:06:49;;;;;;;;;;;;;;;23.60;43.56;101372.47;5082597;28;19932;-79
2023/06/20 02:09:15;;;;;;;;;;;;;;;23.60;43.49;101377.97;5088418;28;19916;-79
2023/06/20 02:11:40;;;;;;;;;;;;;;;23.60;43.38;101369.75;5064696;28;20392;-78
2023/06/20 02:14:07;;;;;;;;;;;;;;;23.60;43.20;101367.00;5071182;28;19974;-78
2023/06/20 02:16:36;;;;;;;;;;;;;;;23.60;43.61;101365.09;5085216;28;19912;-79
2023/06/20 02:19:01;;;;;;;;;;;;;;;23.57;43.58;101371.19;5086591;28;20473;-78
2023/06/20 02:21:29;;;;;;;;;;;;;;;23.54;43.46;101369.09;5088046;28;19912;-79
2023/06/20 02:23:55;;;;;;;;;;;;;;;23.53;43.47;101370.22;5081229;28;19916;-79
2023/06/20 02:26:24;;;;;;;;;;;;;;;23.50;43.58;101377.09;5088416;28;19969;-79
2023/06/20 02:28:49;;;;;;;;;;;;;;;23.47;43.73;101372.28;5083758;28;19925;-78
2023/06/20 02:31:16;;;;;;;;;;;;;;;23.46;43.59;101367.13;5083317;28;19939;-78
2023/06/20 02:33:43;;;;;;;;;;;;;;;23.46;43.38;101373.41;5086639;28;19912;-78
2023/06/20 02:36:09;;;;;;;;;;;;;;;23.47;43.44;101363.25;5085502;28;19931;-78
2023/06/20 02:38:34;;;;;;;;;;;;;;;23.44;43.50;101367.44;5085770;28;19916;-79
2023/06/20 02:40:59;;;;;;;;;;;;;;;23.43;43.66;101373.25;5085319;28;19923;-79
2023/06/20 02:43:25;;;;;;;;;;;;;;;23.39;43.69;101369.53;5085643;28;19923;-79
2023/06/20 02:45:53;;;;;;;;;;;;;;;23.35;43.56;101377.59;5082187;28;19924;-78
2023/06/20 02:48:26;;;;;;;;;;;;;;;23.34;43.71;101383.34;5083607;28;20380;-79
2023/06/20 02:51:15;;;;;;;;;;;;;;;23.34;43.66;101375.13;5084857;28;19924;-78
2023/06/20 02:53:57;;;;;;;;;;;;;;;23.31;43.87;101368.38;5082523;28;19938;-79
2023/06/20 02:56:23;;;;;;;;;;;;;;;23.30;43.97;101376.91;5082553;28;19932;-79
2023/06/20 02:58:52;;;;;;;;;;;;;;;23.30;43.83;101371.44;5084810;28;19923;-78
2023/06/20 03:01:22;;;;;;;;;;;;;;;23.29;43.96;101369.81;5084927;28;20441;-78
2023/06/20 03:03:49;;;;;;;;;;;;;;;23.28;43.88;101369.03;5086076;28;19966;-79
2023/06/20 03:06:15;;;;;;;;;;;;;;;23.30;43.78;101372.25;5086617;28;19920;-79
2023/06/20 03:08:42;;;;;;;;;;;;;;;23.29;44.05;101375.28;5087673;28;20333;-79
2023/06/20 03:11:07;;;;;;;;;;;;;;;23.28;43.89;101379.16;5090044;28;19923;-78
2023/06/20 03:13:32;;;;;;;;;;;;;;;23.31;43.99;101373.84;5087719;28;19973;-79
2023/06/20 03:15:58;;;;;;;;;;;;;;;23.37;43.69;101378.06;5093930;28;19973;-79
2023/06/20 03:18:24;;;;;;;;;;;;;;;23.38;43.91;101371.47;5092267;28;19951;-78
2023/06/20 03:20:50;;;;;;;;;;;;;;;23.38;43.86;101384.34;5093308;28;20283;-79
2023/06/20 03:23:15;;;;;;;;;;;;;;;23.37;44.13;101380.81;5088703;28;19916;-78
2023/06/20 03:25:41;;;;;;;;;;;;;;;23.37;44.03;101380.81;5090599;28;19939;-78
2023/06/20 03:28:06;;;;;;;;;;;;;;;23.39;44.36;101383.22;5090981;28;19931;-79
2023/06/20 03:30:32;;;;;;;;;;;;;;;23.40;44.12;101387.56;5091539;28;19935;-78
2023/06/20 03:32:57;;;;;;;;;;;;;;;23.42;43.97;101380.63;5093118;28;19923;-79
2023/06/20 03:35:22;;;;;;;;;;;;;;;23.45;44.27;101384.66;5094729;28;20137;-78
2023/06/20 03:37:48;;;;;;;;;;;;;;;23.48;44.18;101382.09;5091775;28;19923;-79
2023/06/20 03:40:13;;;;;;;;;;;;;;;23.52;44.26;101383.09;5092190;28;20388;-78
2023/06/20 03:42:38;;;;;;;;;;;;;;;23.55;44.13;101387.09;5090116;28;19935;-78
2023/06/20 03:45:04;;;;;;;;;;;;;;;23.60;44.11;101392.44;5092390;28;20404;-79
2023/06/20 03:47:29;;;;;;;;;;;;;;;23.65;43.92;101395.00;5092125;28;19920;-79
2023/06/20 03:49:55;;;;;;;;;;;;;;;23.71;43.86;101398.41;5092544;28;19920;-78
2023/06/20 03:52:20;;;;;;;;;;;;;;;23.78;43.60;101394.06;5087285;28;19927;-79
2023/06/20 03:54:45;;;;;;;;;;;;;;;23.83;44.03;101389.56;5090642;28;19920;-78
2023/06/20 03:57:10;;;;;;;;;;;;;;;23.85;43.83;101398.25;5090743;28;19931;-79
2023/06/20 03:59:36;;;;;;;;;;;;;;;23.88;43.80;101403.06;5092527;28;19975;-79
2023/06/20 04:02:01;;;;;;;;;;;;;;;23.96;43.89;101399.53;5086789;28;20641;-79
2023/06/20 04:04:26;;;;;;;;;;;;;;;24.06;43.90;101404.69;5091830;28;19916;-78
2023/06/20 04:06:52;;;;;;;;;;;;;;;24.14;43.78;101401.13;5091709;28;19928;-79
2023/06/20 04:09:17;;;;;;;;;;;;;;;24.23;43.69;101398.38;5077903;28;20034;-79
2023/06/20 04:11:43;;;;;;;;;;;;;;;24.31;43.70;101392.94;5087323;28;20299;-79
2023/06/20 04:14:08;;;;;;;;;;;;;;;24.39;43.65;101397.56;5092062;28;19923;-79
2023/06/20 04:16:33;;;;;;;;;;;;;;;24.43;43.87;101389.53;5091694;28;20388;-79
2023/06/20 04:18:58;;;;;;;;;;;;;;;24.47;43.68;101404.19;5089170;28;19964;-78
2023/06/20 04:21:24;;;;;;;;;;;;;;;24.54;43.62;101409.16;5083867;28;19994;-79
2023/06/20 04:23:49;;;;;;;;;;;;;;;24.60;43.67;101399.63;5078885;28;19966;-79
2023/06/20 04:26:15;;;;;;;;;;;;;;;24.65;43.41;101405.75;5084261;28;20014;-79
2023/06/20 04:28:40;;;;;;;;;;;;;;;24.73;43.53;101406.84;5079132;28;20047;-79
2023/06/20 04:31:05;;;;;;;;;;;;;;;24.82;43.56;101404.88;5085509;28;19947;-79
2023/06/20 04:33:31;;;;;;;;;;;;;;;24.92;43.38;101400.97;5081332;28;20345;-79
2023/06/20 04:35:59;;;;;;;;;;;;;;;25.02;43.41;101400.63;5082838;28;20387;-79
2023/06/20 04:38:24;;;;;;;;;;;;;;;25.09;43.27;101400.91;5081724;28;19912;-79
2023/06/20 04:40:49;;;;;;;;;;;;;;;25.20;43.21;101406.84;5086600;28;19924;-79
2023/06/20 04:43:15;;;;;;;;;;;;;;;25.28;43.14;101406.78;5087278;28;19927;-79
2023/06/20 04:45:40;;;;;;;;;;;;;;;25.35;43.06;101409.00;5083049;28;19920;-80
2023/06/20 04:48:05;;;;;;;;;;;;;;;25.41;43.29;101413.16;5083696;28;19997;-79
2023/06/20 04:50:31;;;;;;;;;;;;;;;25.50;43.24;101407.63;5080469;28;20507;-79
2023/06/20 04:52:56;;;;;;;;;;;;;;;25.61;43.18;101414.31;5080674;28;19916;-79
2023/06/20 04:55:22;;;;;;;;;;;;;;;25.71;43.21;101418.66;5086770;28;19945;-80
2023/06/20 04:57:47;;;;;;;;;;;;;;;25.81;42.94;101407.25;5086080;28;19932;-80
2023/06/20 05:00:14;;;;;;;;;;;;;;;25.91;42.97;101404.13;5078106;28;19927;-79
2023/06/20 05:02:44;;;;;;;;;;;;;;;26.03;42.73;101408.84;5079945;28;20007;-79
2023/06/20 05:05:09;;;;;;;;;;;;;;;26.12;42.74;101418.63;5088228;28;19962;-79
2023/06/20 05:07:35;;;;;;;;;;;;;;;26.22;42.76;101419.38;5085054;28;19920;-80
2023/06/20 05:10:00;;;;;;;;;;;;;;;26.33;42.71;101420.53;5086410;28;19920;-80
2023/06/20 05:12:25;;;;;;;;;;;;;;;26.43;42.33;101423.69;5085864;28;19916;-79
2023/06/20 05:14:51;;;;;;;;;;;;;;;26.53;42.48;101422.44;5087972;28;19927;-80
2023/06/20 05:17:16;;;;;;;;;;;;;;;26.63;42.35;101424.78;5083085;28;19982;-80
2023/06/20 05:19:41;;;;;;;;;;;;;;;26.72;42.19;101422.72;5085662;28;19995;-79
2023/06/20 05:22:07;;;;;;;;;;;;;;;26.80;41.99;101427.31;5080228;28;19931;-80
2023/06/20 05:24:32;;;;;;;;;;;;;;;26.88;41.89;101427.56;5078836;28;19916;-79
2023/06/20 05:26:57;;;;;;;;;;;;;;;26.95;41.91;101427.81;5081392;28;19967;-80
2023/06/20 05:29:22;;;;;;;;;;;;;;;27.06;42.06;101428.97;5081994;28;19923;-79
2023/06/20 05:31:48;;;;;;;;;;;;;;;27.18;41.99;101429.00;5077863;28;19924;-80
2023/06/20 05:34:13;;;;;;;;;;;;;;;27.31;41.74;101429.78;5083469;28;20288;-80
2023/06/20 05:36:38;;;;;;;;;;;;;;;27.44;41.58;101434.13;5082988;28;20415;-80
2023/06/20 05:39:04;;;;;;;;;;;;;;;27.54;41.36;101433.66;5086478;28;19972;-80
2023/06/20 05:41:29;;;;;;;;;;;;;;;27.66;41.35;101430.91;5085902;28;20012;-80
2023/06/20 05:43:54;;;;;;;;;;;;;;;27.79;41.55;101434.44;5080876;28;19955;-80
2023/06/20 05:46:20;;;;;;;;;;;;;;;27.93;40.97;101445.06;5086835;28;19924;-80
2023/06/20 05:48:48;;;;;;;;;;;;;;;28.07;41.01;101455.69;5082045;28;19928;-80
2023/06/20 05:51:13;;;;;;;;;;;;;;;28.18;40.54;101443.00;5082268;28;19971;-80
2023/06/20 05:53:42;;;;;;;;;;;;;;;28.26;40.70;101448.41;5080370;28;20401;-80
2023/06/20 05:56:10;;;;;;;;;;;;;;;28.32;40.52;101454.47;5081951;28;19920;-80
2023/06/20 05:58:36;;;;;;;;;;;;;;;28.41;40.08;101448.81;5080532;28;20623;-79
2023/06/20 06:01:03;;;;;;;;;;;;;;;28.48;40.10;101438.78;5076000;28;20038;-80
2023/06/20 06:03:29;;;;;;;;;;;;;;;28.61;39.65;101447.78;5059107;28;19916;-80
2023/06/20 06:05:55;;;;;;;;;;;;;;;28.70;39.67;101450.38;5076068;28;20006;-79
2023/06/20 06:08:20;;;;;;;;;;;;;;;28.79;39.71;101451.81;5082103;28;20750;-80
2023/06/20 06:10:45;;;;;;;;;;;;;;;28.89;39.42;101458.78;5081481;28;19938;-80
2023/06/20 06:13:11;;;;;;;;;;;;;;;29.03;39.43;101461.91;5085113;28;19923;-81
2023/06/20 06:15:36;;;;;;;;;;;;;;;29.12;38.89;101456.22;5084253;28;20300;-80
2023/06/20 06:18:03;;;;;;;;;;;;;;;29.24;39.17;101460.81;5081152;28;20453;-79
2023/06/20 06:20:29;;;;;;;;;;;;;;;29.39;39.08;101465.50;5084672;28;19946;-80
2023/06/20 06:22:54;;;;;;;;;;;;;;;29.57;38.92;101468.72;5080219;28;19917;-79
2023/06/20 06:25:20;;;;;;;;;;;;;;;29.74;39.13;101471.88;5080168;28;19923;-80
2023/06/20 06:27:45;;;;;;;;;;;;;;;29.86;38.58;101468.19;5083791;28;19920;-80
2023/06/20 06:30:10;;;;;;;;;;;;;;;29.99;38.51;101463.34;5085936;28;19923;-80
2023/06/20 06:32:36;;;;;;;;;;;;;;;30.12;38.60;101456.53;5085783;28;19916;-80
2023/06/20 06:35:02;;;;;;;;;;;;;;;30.23;38.00;101465.03;5082994;28;20467;-80
2023/06/20 06:37:29;;;;;;;;;;;;;;;30.28;37.90;101462.78;5085841;28;19916;-80
2023/06/20 06:39:55;;;;;;;;;;;;;;;30.31;37.78;101461.25;5082995;28;19959;-80
2023/06/20 06:42:20;;;;;;;;;;;;;;;30.32;37.87;101466.41;5083419;28;20479;-79
2023/06/20 06:44:46;;;;;;;;;;;;;;;30.36;37.94;101467.28;5085009;28;19916;-80
2023/06/20 06:47:11;;;;;;;;;;;;;;;30.40;38.08;101456.28;5083503;28;19924;-80
2023/06/20 06:49:36;;;;;;;;;;;;;;;30.49;37.83;101464.34;5084109;28;20011;-80
2023/06/20 06:52:02;;;;;;;;;;;;;;;30.62;38.10;101454.75;5086599;28;19924;-80
2023/06/20 06:54:27;;;;;;;;;;;;;;;30.77;37.62;101456.59;5084273;28;19920;-80
2023/06/20 06:56:52;;;;;;;;;;;;;;;30.97;37.70;101446.28;5081835;28;19928;-80
2023/06/20 06:59:18;;;;;;;;;;;;;;;31.15;37.34;101441.81;5076799;28;19920;-80
2023/06/20 07:01:44;;;;;;;;;;;;;;;31.34;37.17;101434.63;5073405;28;19920;-80
2023/06/20 07:04:10;;;;;;;;;;;;;;;31.51;36.79;101439.63;5080333;28;19924;-80
2023/06/20 07:06:35;;;;;;;;;;;;;;;31.66;36.18;101440.63;5081597;28;20006;-80
2023/06/20 07:09:00;;;;;;;;;;;;;;;31.80;36.54;101438.88;5084429;28;21616;-80
2023/06/20 07:11:26;;;;;;;;;;;;;;;31.95;36.06;101434.28;5080141;28;20015;-80
2023/06/20 07:13:51;;;;;;;;;;;;;;;32.13;36.18;101440.81;5057363;28;19932;-80
2023/06/20 07:16:16;;;;;;;;;;;;;;;32.27;35.86;101431.91;5086347;28;20707;-80
2023/06/20 07:18:42;;;;;;;;;;;;;;;32.38;35.60;101434.81;5082289;28;20388;-80
2023/06/20 07:21:07;;;;;;;;;;;;;;;32.49;35.34;101432.91;5082893;28;20372;-80
2023/06/20 07:23:33;;;;;;;;;;;;;;;32.59;35.67;101437.78;5070777;28;19966;-80
2023/06/20 07:25:58;;;;;;;;;;;;;;;32.69;35.41;101430.75;5078589;28;19920;-80
2023/06/20 07:28:25;;;;;;;;;;;;;;;32.82;35.35;101425.72;5081819;28;19920;-80
2023/06/20 07:30:50;;;;;;;;;;;;;;;32.94;35.22;101428.22;5079364;28;19931;-79
2023/06/20 07:33:15;;;;;;;;;;;;;;;33.08;35.01;101427.53;5084235;28;19931;-80
2023/06/20 07:35:41;;;;;;;;;;;;;;;33.17;35.27;101426.00;5084277;28;19915;-79
2023/06/20 07:38:06;;;;;;;;;;;;;;;33.25;35.21;101430.44;5076053;28;20018;-80
2023/06/20 07:40:31;;;;;;;;;;;;;;;33.32;34.86;101424.13;5081797;28;20368;-80
2023/06/20 07:42:57;;;;;;;;;;;;;;;33.33;34.76;101426.53;5080092;28;20031;-79
2023/06/20 07:45:22;;;;;;;;;;;;;;;33.39;34.77;101426.16;5078664;28;19963;-79
2023/06/20 07:47:47;;;;;;;;;;;;;;;33.49;34.60;101422.66;5081441;28;19930;-80
2023/06/20 07:50:12;;;;;;;;;;;;;;;33.58;34.68;101425.91;5081506;28;19959;-80
2023/06/20 07:52:40;;;;;;;;;;;;;;;33.65;34.22;101431.47;5082444;28;19916;-79
2023/06/20 07:55:05;;;;;;;;;;;;;;;33.77;34.61;101428.38;5082297;28;19922;-79
2023/06/20 07:57:30;;;;;;;;;;;;;;;33.96;34.36;101429.28;5083172;28;19921;-80
2023/06/20 07:59:56;;;;;;;;;;;;;;;34.13;33.98;101426.53;5082470;28;19920;-80
2023/06/20 08:02:21;;;;;;;;;;;;;;;34.26;33.27;101432.53;5087651;28;19927;-79
2023/06/20 08:04:47;;;;;;;;;;;;;;;34.31;32.88;101432.16;5083265;28;20022;-78
2023/06/20 08:07:12;;;;;;;;;;;;;;;34.39;33.59;101433.78;5087801;28;20497;-80
2023/06/20 08:09:38;;;;;;;;;;;;;;;34.51;33.18;101427.03;5081695;28;19924;-80
2023/06/20 08:12:03;;;;;;;;;;;;;;;34.62;33.42;101429.81;5086880;28;19983;-80
2023/06/20 08:14:28;;;;;;;;;;;;;;;34.78;33.54;101424.66;5087673;28;19920;-79
2023/06/20 08:16:54;;;;;;;;;;;;;;;34.98;33.48;101425.88;5087372;28;20331;-79
2023/06/20 08:19:19;;;;;;;;;;;;;;;35.17;33.06;101423.88;5087798;28;19916;-80
2023/06/20 08:21:44;;;;;;;;;;;;;;;35.33;33.32;101418.66;5081671;28;19932;-79
2023/06/20 08:24:10;;;;;;;;;;;;;;;35.54;33.52;101421.41;5085251;28;20048;-80
2023/06/20 08:26:35;;;;;;;;;;;;;;;35.73;32.87;101414.59;5084750;28;20292;-80
2023/06/20 08:29:00;;;;;;;;;;;;;;;35.82;32.97;101417.72;5082533;28;20302;-80
2023/06/20 08:31:36;;;;;;;;;;;;;;;35.83;32.97;101419.31;5086950;28;19923;-80
2023/06/20 08:34:01;;;;;;;;;;;;;;;35.90;33.23;101415.72;5088100;28;19927;-80
2023/06/20 08:36:26;;;;;;;;;;;;;;;36.01;33.01;101414.47;5084053;28;20327;-80
2023/06/20 08:38:52;;;;;;;;;;;;;;;36.18;32.98;101410.00;5082910;28;19927;-80
2023/06/20 08:41:17;;;;;;;;;;;;;;;36.35;32.82;101407.53;5068665;28;19927;-80
2023/06/20 08:43:42;;;;;;;;;;;;;;;36.46;32.36;101408.25;5083109;28;20032;-80
2023/06/20 08:46:08;;;;;;;;;;;;;;;36.60;32.29;101413.72;5086524;28;19924;-79
2023/06/20 08:48:34;;;;;;;;;;;;;;;36.74;32.27;101418.41;5089392;28;19920;-80
2023/06/20 08:50:59;;;;;;;;;;;;;;;36.87;32.18;101416.72;5088440;28;19928;-80
2023/06/20 08:53:25;;;;;;;;;;;;;;;36.86;31.91;101410.34;5088546;28;19920;-79
2023/06/20 08:55:51;;;;;;;;;;;;;;;36.92;31.79;101417.06;5085408;28;20333;-80
2023/06/20 08:58:16;;;;;;;;;;;;;;;37.11;31.77;101415.69;5088625;28;19928;-80
2023/06/20 09:00:45;;;;;;;;;;;;;;;37.30;31.64;101408.72;5087143;28;19922;-79
2023/06/20 09:03:10;;;;;;;;;;;;;;;37.38;31.58;101407.44;5089856;28;19924;-80
2023/06/20 09:05:39;;;;;;;;;;;;;;;37.41;31.49;101406.63;5089249;28;19998;-80
2023/06/20 09:08:05;;;;;;;;;;;;;;;37.50;31.34;101408.91;5089736;28;20383;-79
2023/06/20 09:10:31;;;;;;;;;;;;;;;37.56;31.33;101407.25;5089816;28;19942;-80
2023/06/20 09:12:56;;;;;;;;;;;;;;;37.67;31.49;101407.09;5087334;28;19932;-80
2023/06/20 09:15:26;;;;;;;;;;;;;;;37.76;31.11;101407.41;5087692;28;19938;-79
2023/06/20 09:17:52;;;;;;;;;;;;;;;37.90;30.79;101403.66;5088219;28;19966;-79
2023/06/20 09:20:18;;;;;;;;;;;;;;;38.07;31.08;101409.00;5087019;28;19931;-80
2023/06/20 09:22:43;;;;;;;;;;;;;;;38.23;30.33;101394.38;5085738;28;19916;-80
2023/06/20 09:25:09;;;;;;;;;;;;;;;38.38;30.77;101406.16;5089456;28;19947;-80
2023/06/20 09:27:35;;;;;;;;;;;;;;;38.53;30.60;101396.31;5086123;28;19951;-79
2023/06/20 09:30:03;;;;;;;;;;;;;;;38.66;30.11;101399.34;5087173;28;19920;-80
2023/06/20 09:32:32;;;;;;;;;;;;;;;38.82;30.15;101395.88;5085532;28;19981;-79
2023/06/20 09:35:01;;;;;;;;;;;;;;;38.98;29.73;101398.78;5086718;28;20087;-80
2023/06/20 09:37:34;;;;;;;;;;;;;;;39.10;29.85;101394.56;5088864;28;19916;-80
2023/06/20 09:40:06;;;;;;;;;;;;;;;39.17;29.51;101394.44;5082809;28;19924;-79
2023/06/20 09:42:31;;;;;;;;;;;;;;;39.25;29.62;101390.28;5080132;28;19946;-80
2023/06/20 09:44:57;;;;;;;;;;;;;;;39.31;29.45;101394.16;5082763;28;20005;-80
2023/06/20 09:47:22;;;;;;;;;;;;;;;39.31;29.13;101401.75;5081964;28;19938;-80
2023/06/20 09:49:48;;;;;;;;;;;;;;;39.20;28.78;101394.38;5061782;28;19920;-80
2023/06/20 09:52:14;;;;;;;;;;;;;;;39.10;28.60;101395.34;5082764;28;20395;-80
2023/06/20 09:55:00;;;;;;;;;;;;;;;39.00;28.96;101390.72;5084850;28;19922;-80
2023/06/20 09:57:30;;;;;;;;;;;;;;;38.91;29.05;101390.47;5056312;28;19927;-80
2023/06/20 09:59:57;;;;;;;;;;;;;;;38.82;29.02;101390.25;5077759;28;20767;-79
2023/06/20 10:02:24;;;;;;;;;;;;;;;38.80;28.52;101396.28;5080366;28;19923;-79
2023/06/20 10:04:49;;;;;;;;;;;;;;;38.81;28.74;101395.06;5081818;28;19931;-80
2023/06/20 10:07:16;;;;;;;;;;;;;;;38.79;28.25;101393.94;5084373;28;19924;-80
2023/06/20 10:09:41;;;;;;;;;;;;;;;38.72;28.25;101392.03;5079375;28;19916;-80
2023/06/20 10:12:07;;;;;;;;;;;;;;;38.58;28.29;101393.03;5082538;28;20715;-79
2023/06/20 10:14:33;;;;;;;;;;;;;;;38.47;28.39;101386.03;5078913;28;20408;-80
2023/06/20 10:17:05;;;;;;;;;;;;;;;38.43;28.29;101394.50;5076584;28;19924;-80
2023/06/20 10:19:45;;;;;;;;;;;;;;;38.32;28.47;101385.47;5070372;28;19920;-78
2023/06/20 10:22:10;;;;;;;;;;;;;;;38.19;28.63;101381.66;5081236;28;20396;-79
2023/06/20 10:24:39;;;;;;;;;;;;;;;38.15;28.78;101392.88;5083252;28;19920;-80
2023/06/20 10:27:05;;;;;;;;;;;;;;;38.13;29.27;101389.72;5084164;28;19924;-80
2023/06/20 10:29:38;;;;;;;;;;;;;;;38.07;29.02;101386.63;5079795;28;19963;-79
2023/06/20 10:32:07;;;;;;;;;;;;;;;37.98;29.33;101386.34;5074377;28;20006;-80
2023/06/20 10:34:34;;;;;;;;;;;;;;;37.85;29.25;101385.31;5079328;28;19951;-80
2023/06/20 10:37:18;;;;;;;;;;;;;;;37.75;29.52;101386.25;5082845;28;19986;-80
2023/06/20 10:39:51;;;;;;;;;;;;;;;37.68;29.48;101386.31;5081470;28;19928;-80
2023/06/20 10:42:37;;;;;;;;;;;;;;;37.57;29.39;101385.66;5086156;28;19942;-80
2023/06/20 10:45:16;;;;;;;;;;;;;;;37.45;29.70;101395.38;5064327;28;19920;-80
2023/06/20 10:47:41;;;;;;;;;;;;;;;37.35;29.80;101394.31;5078164;28;20019;-80
2023/06/20 10:50:07;;;;;;;;;;;;;;;37.29;29.70;101397.97;5077725;28;20090;-78
2023/06/20 10:52:32;;;;;;;;;;;;;;;37.25;29.66;101394.41;5082122;28;20386;-80
2023/06/20 10:54:59;;;;;;;;;;;;;;;37.24;29.88;101401.97;5082958;28;19931;-80
2023/06/20 10:57:24;;;;;;;;;;;;;;;37.24;30.03;101393.59;5076835;28;19920;-79
2023/06/20 10:59:50;;;;;;;;;;;;;;;37.21;30.02;101397.22;5077081;28;20530;-79
2023/06/20 11:02:15;;;;;;;;;;;;;;;37.14;30.09;101392.50;5078102;28;20384;-80
2023/06/20 11:04:40;;;;;;;;;;;;;;;37.05;30.41;101400.59;5079755;28;19968;-79
2023/06/20 11:07:06;;;;;;;;;;;;;;;36.97;30.40;101403.84;5083533;28;19924;-79
2023/06/20 11:09:31;;;;;;;;;;;;;;;36.91;30.25;101409.09;5087708;28;20431;-79
2023/06/20 11:11:56;;;;;;;;;;;;;;;36.82;30.54;101414.38;5083702;28;19931;-80
2023/06/20 11:14:23;;;;;;;;;;;;;;;36.72;30.65;101415.22;5084452;28;19965;-79
2023/06/20 11:16:49;;;;;;;;;;;;;;;36.66;30.83;101428.84;5075939;28;19920;-80
2023/06/20 11:19:19;;;;;;;;;;;;;;;36.57;30.91;101443.25;5075065;28;20368;-80
2023/06/20 11:21:44;;;;;;;;;;;;;;;36.43;31.11;101442.53;5078323;28;19916;-80
2023/06/20 11:24:10;;;;;;;;;;;;;;;36.25;30.66;101443.41;5082691;28;19924;-80
2023/06/20 11:26:36;;;;;;;;;;;;;;;36.08;31.10;101441.53;5085379;28;19931;-79
2023/06/20 11:29:02;;;;;;;;;;;;;;;36.01;31.13;101449.94;5081564;28;19932;-79
2023/06/20 11:31:27;;;;;;;;;;;;;;;35.93;31.13;101443.63;5085369;28;19959;-79
2023/06/20 11:34:09;;;;;;;;;;;;;;;35.90;31.16;101440.81;5069541;28;19981;-79
2023/06/20 11:36:36;;;;;;;;;;;;;;;35.92;31.13;101449.59;5086835;28;19924;-79
2023/06/20 11:39:08;;;;;;;;;;;;;;;35.91;31.17;101446.00;5089432;28;19920;-80
2023/06/20 11:41:33;;;;;;;;;;;;;;;35.86;31.05;101454.00;5090145;28;20462;-79
2023/06/20 11:43:59;;;;;;;;;;;;;;;35.75;30.98;101459.59;5087358;28;20387;-79
2023/06/20 11:46:25;;;;;;;;;;;;;;;35.57;31.20;101454.06;5088608;28;19924;-80
2023/06/20 11:48:56;;;;;;;;;;;;;;;35.40;31.24;101458.50;5083981;28;19927;-79
2023/06/20 11:51:23;;;;;;;;;;;;;;;35.30;31.77;101452.91;5087063;28;19967;-80
2023/06/20 11:53:58;;;;;;;;;;;;;;;35.26;31.80;101449.34;5090101;28;19959;-80
2023/06/20 11:56:24;;;;;;;;;;;;;;;35.20;31.76;101456.50;5080579;28;19959;-80
2023/06/20 11:58:49;;;;;;;;;;;;;;;35.07;32.07;101454.13;5082990;28;20422;-80
2023/06/20 12:01:14;;;;;;;;;;;;;;;35.02;32.08;101456.53;5090420;28;19923;-80
2023/06/20 12:03:41;;;;;;;;;;;;;;;35.07;32.10;101454.13;5082821;28;20619;-81
2023/06/20 12:06:25;;;;;;;;;;;;;;;35.05;32.15;101455.72;5088410;28;19921;-80
2023/06/20 12:08:58;;;;;;;;;;;;;;;35.03;32.47;101456.13;5085971;28;19920;-81
2023/06/20 12:11:24;;;;;;;;;;;;;;;34.95;32.18;101456.50;5085144;28;20374;-80
2023/06/20 12:13:49;;;;;;;;;;;;;;;34.89;32.35;101467.25;5084061;28;19920;-81
2023/06/20 12:16:15;;;;;;;;;;;;;;;34.82;32.82;101464.44;5085805;28;19959;-81
2023/06/20 12:18:40;;;;;;;;;;;;;;;34.66;33.15;101459.28;5081230;28;19927;-80
2023/06/20 12:21:05;;;;;;;;;;;;;;;34.63;33.46;101462.03;5085313;28;20440;-79
2023/06/20 12:23:31;;;;;;;;;;;;;;;34.58;33.29;101462.44;5083493;28;19920;-80
2023/06/20 12:25:57;;;;;;;;;;;;;;;34.47;33.74;101457.66;5083585;28;19920;-80
2023/06/20 12:28:23;;;;;;;;;;;;;;;34.40;34.13;101454.84;5088211;28;20509;-80
2023/06/20 12:30:48;;;;;;;;;;;;;;;34.35;33.91;101448.84;5085102;28;19931;-80
2023/06/20 12:33:13;;;;;;;;;;;;;;;34.34;34.01;101461.16;5086340;28;19955;-80